sensor_id;sensor_type;location;lat;lon;timestamp;pressure;altitude;pressure_sealevel;temperature;humidity
26563;BME280;14217;50.986;5.826;2023-05-19T00:03:34;101907.72;;;22.58;36.21
26563;BME280;14217;50.986;5.826;2023-05-19T00:08:38;101901.56;;;22.56;35.90
26563;BME280;14217;50.986;5.826;2023-05-19T00:13:40;101904.25;;;22.56;36.24
26563;BME280;14217;50.986;5.826;2023-05-19T00:18:42;101897.97;;;22.57;36.05
26563;BME280;14217;50.986;5.826;2023-05-19T00:23:44;101898.09;;;22.53;36.17
26563;BME280;14217;50.986;5.826;2023-05-19T00:28:46;101899.84;;;22.55;36.11
26563;BME280;14217;50.986;5.826;2023-05-19T00:33:48;101898.09;;;22.53;36.05
26563;BME280;14217;50.986;5.826;2023-05-19T00:38:51;101896.22;;;22.56;36.30
26563;BME280;14217;50.986;5.826;2023-05-19T00:43:53;101895.53;;;22.52;36.38
26563;BME280;14217;50.986;5.826;2023-05-19T00:48:55;101889.16;;;22.55;36.13
26563;BME280;14217;50.986;5.826;2023-05-19T00:53:57;101882.97;;;22.54;36.14
26563;BME280;14217;50.986;5.826;2023-05-19T00:59:00;101885.69;;;22.52;36.23
26563;BME280;14217;50.986;5.826;2023-05-19T01:04:02;101879.63;;;22.49;36.46
26563;BME280;14217;50.986;5.826;2023-05-19T01:09:05;101884.91;;;22.50;36.29
26563;BME280;14217;50.986;5.826;2023-05-19T01:14:07;101883.94;;;22.51;36.10
26563;BME280;14217;50.986;5.826;2023-05-19T01:30:38;101876.72;;;22.53;36.09
26563;BME280;14217;50.986;5.826;2023-05-19T01:35:42;101881.28;;;22.51;36.34
26563;BME280;14217;50.986;5.826;2023-05-19T01:40:46;101886.63;;;22.51;36.43
26563;BME280;14217;50.986;5.826;2023-05-19T01:45:49;101896.53;;;22.49;36.53
26563;BME280;14217;50.986;5.826;2023-05-19T01:50:51;101889.28;;;22.51;36.17
26563;BME280;14217;50.986;5.826;2023-05-19T01:55:55;101885.97;;;22.46;36.33
26563;BME280;14217;50.986;5.826;2023-05-19T02:01:04;101869.88;;;22.48;36.48
26563;BME280;14217;50.986;5.826;2023-05-19T02:06:26;101877.69;;;22.52;36.46
26563;BME280;14217;50.986;5.826;2023-05-19T02:11:36;101874.28;;;22.49;36.50
26563;BME280;14217;50.986;5.826;2023-05-19T02:16:42;101873.41;;;22.48;36.56
26563;BME280;14217;50.986;5.826;2023-05-19T02:21:45;101868.94;;;22.49;36.40
26563;BME280;14217;50.986;5.826;2023-05-19T02:26:48;101862.78;;;22.47;36.42
26563;BME280;14217;50.986;5.826;2023-05-19T02:31:50;101853.91;;;22.46;36.29
26563;BME280;14217;50.986;5.826;2023-05-19T02:36:52;101855.66;;;22.47;36.55
26563;BME280;14217;50.986;5.826;2023-05-19T02:41:54;101849.44;;;22.47;36.32
26563;BME280;14217;50.986;5.826;2023-05-19T02:46:56;101855.66;;;22.47;36.48
26563;BME280;14217;50.986;5.826;2023-05-19T02:51:58;101856.53;;;22.48;36.28
26563;BME280;14217;50.986;5.826;2023-05-19T02:57:00;101864.47;;;22.49;36.38
26563;BME280;14217;50.986;5.826;2023-05-19T03:02:02;101862.09;;;22.43;36.76
26563;BME280;14217;50.986;5.826;2023-05-19T03:07:05;101852.19;;;22.45;36.46
26563;BME280;14217;50.986;5.826;2023-05-19T03:12:07;101859.41;;;22.43;36.59
26563;BME280;14217;50.986;5.826;2023-05-19T03:17:09;101844.25;;;22.44;36.34
26563;BME280;14217;50.986;5.826;2023-05-19T03:22:11;101843.38;;;22.43;36.38
26563;BME280;14217;50.986;5.826;2023-05-19T03:27:13;101853.00;;;22.47;36.29
26563;BME280;14217;50.986;5.826;2023-05-19T03:32:15;101842.44;;;22.44;36.55
26563;BME280;14217;50.986;5.826;2023-05-19T03:37:17;101847.84;;;22.43;36.69
26563;BME280;14217;50.986;5.826;2023-05-19T03:42:19;101851.53;;;22.40;36.77
26563;BME280;14217;50.986;5.826;2023-05-19T03:47:21;101846.97;;;22.42;36.64
26563;BME280;14217;50.986;5.826;2023-05-19T03:52:23;101854.13;;;22.42;36.46
26563;BME280;14217;50.986;5.826;2023-05-19T03:57:25;101852.19;;;22.45;36.50
26563;BME280;14217;50.986;5.826;2023-05-19T04:02:27;101862.09;;;22.43;36.71
26563;BME280;14217;50.986;5.826;2023-05-19T04:07:30;101858.69;;;22.40;36.47
26563;BME280;14217;50.986;5.826;2023-05-19T04:12:32;101873.84;;;22.39;36.48
26563;BME280;14217;50.986;5.826;2023-05-19T04:17:34;101871.06;;;22.41;36.78
26563;BME280;14217;50.986;5.826;2023-05-19T04:22:36;101878.16;;;22.42;36.54
26563;BME280;14217;50.986;5.826;2023-05-19T04:27:38;101879.19;;;22.39;36.61
26563;BME280;14217;50.986;5.826;2023-05-19T04:32:40;101886.25;;;22.40;36.40
26563;BME280;14217;50.986;5.826;2023-05-19T04:37:43;101890.72;;;22.40;36.83
26563;BME280;14217;50.986;5.826;2023-05-19T04:42:46;101886.38;;;22.37;36.84
26563;BME280;14217;50.986;5.826;2023-05-19T04:47:50;101882.78;;;22.38;36.54
26563;BME280;14217;50.986;5.826;2023-05-19T04:52:53;101879.19;;;22.39;36.82
26563;BME280;14217;50.986;5.826;2023-05-19T04:57:55;101874.75;;;22.38;36.91
26563;BME280;14217;50.986;5.826;2023-05-19T05:02:57;101872.09;;;22.38;36.49
26563;BME280;14217;50.986;5.826;2023-05-19T05:07:59;101873.97;;;22.36;36.77
26563;BME280;14217;50.986;5.826;2023-05-19T05:13:01;101866.91;;;22.35;36.76
26563;BME280;14217;50.986;5.826;2023-05-19T05:18:03;101867.75;;;22.36;36.90
26563;BME280;14217;50.986;5.826;2023-05-19T05:23:06;101877.63;;;22.33;36.82
26563;BME280;14217;50.986;5.826;2023-05-19T05:28:10;101880.31;;;22.33;36.87
26563;BME280;14217;50.986;5.826;2023-05-19T05:33:12;101869.69;;;22.32;36.82
26563;BME280;14217;50.986;5.826;2023-05-19T05:38:14;101870.38;;;22.37;36.72
26563;BME280;14217;50.986;5.826;2023-05-19T05:43:16;101865.22;;;22.32;36.82
26563;BME280;14217;50.986;5.826;2023-05-19T05:48:18;101859.88;;;22.32;36.81
26563;BME280;14217;50.986;5.826;2023-05-19T05:53:23;101862.53;;;22.32;36.74
26563;BME280;14217;50.986;5.826;2023-05-19T05:58:26;101867.00;;;22.32;36.64
26563;BME280;14217;50.986;5.826;2023-05-19T06:03:29;101876.78;;;22.33;37.02
26563;BME280;14217;50.986;5.826;2023-05-19T06:08:32;101874.97;;;22.33;36.91
26563;BME280;14217;50.986;5.826;2023-05-19T06:13:35;101878.72;;;22.29;37.07
26563;BME280;14217;50.986;5.826;2023-05-19T06:18:37;101878.72;;;22.29;36.89
26563;BME280;14217;50.986;5.826;2023-05-19T06:23:39;101880.47;;;22.30;37.08
26563;BME280;14217;50.986;5.826;2023-05-19T06:28:41;101882.97;;;22.33;37.08
26563;BME280;14217;50.986;5.826;2023-05-19T06:33:43;101875.97;;;22.31;37.09
26563;BME280;14217;50.986;5.826;2023-05-19T06:38:45;101868.88;;;22.30;37.03
26563;BME280;14217;50.986;5.826;2023-05-19T06:43:47;101867.22;;;22.27;36.87
26563;BME280;14217;50.986;5.826;2023-05-19T06:48:50;101867.00;;;22.32;36.93
26563;BME280;14217;50.986;5.826;2023-05-19T06:53:52;101873.38;;;22.29;37.25
26563;BME280;14217;50.986;5.826;2023-05-19T06:58:53;101890.19;;;22.31;37.18
26563;BME280;14217;50.986;5.826;2023-05-19T07:03:55;101877.78;;;22.30;37.76
26563;BME280;14217;50.986;5.826;2023-05-19T07:08:57;101879.56;;;22.30;38.31
26563;BME280;14217;50.986;5.826;2023-05-19T07:14:00;101868.03;;;22.29;37.87
26563;BME280;14217;50.986;5.826;2023-05-19T07:19:02;101872.19;;;22.56;37.93
26563;BME280;14217;50.986;5.826;2023-05-19T07:24:04;101868.03;;;22.69;37.82
26563;BME280;14217;50.986;5.826;2023-05-19T07:29:06;101872.16;;;22.76;37.72
26563;BME280;14217;50.986;5.826;2023-05-19T07:34:08;101863.06;;;22.80;37.14
26563;BME280;14217;50.986;5.826;2023-05-19T07:39:10;101868.28;;;22.83;37.15
26563;BME280;14217;50.986;5.826;2023-05-19T07:44:12;101869.06;;;22.85;36.94
26563;BME280;14217;50.986;5.826;2023-05-19T07:49:15;101871.66;;;22.87;36.90
26563;BME280;14217;50.986;5.826;2023-05-19T07:54:16;101871.75;;;22.85;36.27
26563;BME280;14217;50.986;5.826;2023-05-19T07:59:19;101868.00;;;22.50;37.28
26563;BME280;14217;50.986;5.826;2023-05-19T08:04:21;101864.34;;;22.52;36.69
26563;BME280;14217;50.986;5.826;2023-05-19T08:09:23;101870.69;;;22.50;37.19
26563;BME280;14217;50.986;5.826;2023-05-19T08:14:25;101866.41;;;22.46;38.36
26563;BME280;14217;50.986;5.826;2023-05-19T08:19:27;101856.13;;;22.76;35.35
26563;BME280;14217;50.986;5.826;2023-05-19T08:24:30;101859.75;;;22.75;33.17
26563;BME280;14217;50.986;5.826;2023-05-19T08:29:34;101848.47;;;22.68;32.69
26563;BME280;14217;50.986;5.826;2023-05-19T08:34:37;101850.03;;;22.53;34.23
26563;BME280;14217;50.986;5.826;2023-05-19T08:39:39;101851.25;;;22.46;34.37
26563;BME280;14217;50.986;5.826;2023-05-19T08:44:41;101829.81;;;22.48;34.75
26563;BME280;14217;50.986;5.826;2023-05-19T08:49:45;101823.53;;;22.49;34.15
26563;BME280;14217;50.986;5.826;2023-05-19T08:55:02;101820.78;;;22.50;35.21
26563;BME280;14217;50.986;5.826;2023-05-19T09:00:05;101812.00;;;22.48;36.01
26563;BME280;14217;50.986;5.826;2023-05-19T09:05:12;101805.84;;;22.46;35.73
26563;BME280;14217;50.986;5.826;2023-05-19T09:10:14;101800.38;;;22.49;35.01
26563;BME280;14217;50.986;5.826;2023-05-19T09:15:17;101804.72;;;22.52;35.13
26563;BME280;14217;50.986;5.826;2023-05-19T09:20:20;101797.72;;;22.49;34.94
26563;BME280;14217;50.986;5.826;2023-05-19T09:25:22;101796.97;;;22.46;35.16
26563;BME280;14217;50.986;5.826;2023-05-19T09:30:24;101801.53;;;22.44;35.29
26563;BME280;14217;50.986;5.826;2023-05-19T09:35:26;101787.16;;;22.46;34.38
26563;BME280;14217;50.986;5.826;2023-05-19T09:40:28;101795.16;;;22.46;34.14
26563;BME280;14217;50.986;5.826;2023-05-19T09:45:30;101788.09;;;22.45;34.40
26563;BME280;14217;50.986;5.826;2023-05-19T09:50:34;101789.81;;;22.46;34.76
26563;BME280;14217;50.986;5.826;2023-05-19T09:55:36;101783.75;;;22.43;34.99
26563;BME280;14217;50.986;5.826;2023-05-19T10:00:38;101772.09;;;22.45;34.71
26563;BME280;14217;50.986;5.826;2023-05-19T10:05:41;101774.03;;;22.42;34.52
26563;BME280;14217;50.986;5.826;2023-05-19T10:10:45;101772.22;;;22.42;34.78
26563;BME280;14217;50.986;5.826;2023-05-19T10:15:49;101770.69;;;22.37;35.41
26563;BME280;14217;50.986;5.826;2023-05-19T10:20:56;101773.34;;;22.37;35.36
26563;BME280;14217;50.986;5.826;2023-05-19T10:26:00;101767.72;;;22.43;35.47
26563;BME280;14217;50.986;5.826;2023-05-19T10:31:09;101759.94;;;22.38;34.81
26563;BME280;14217;50.986;5.826;2023-05-19T10:41:44;101764.94;;;22.46;35.26
26563;BME280;14217;50.986;5.826;2023-05-19T10:46:47;101748.97;;;22.44;33.98
26563;BME280;14217;50.986;5.826;2023-05-19T10:51:54;101746.53;;;22.40;34.19
26563;BME280;14217;50.986;5.826;2023-05-19T10:56:57;101741.63;;;22.49;33.55
26563;BME280;14217;50.986;5.826;2023-05-19T11:02:06;101735.63;;;22.44;32.88
26563;BME280;14217;50.986;5.826;2023-05-19T11:07:09;101749.41;;;22.54;32.66
26563;BME280;14217;50.986;5.826;2023-05-19T11:12:11;101742.91;;;22.60;32.62
26563;BME280;14217;50.986;5.826;2023-05-19T11:17:14;101743.59;;;22.82;31.83
26563;BME280;14217;50.986;5.826;2023-05-19T11:22:16;101734.97;;;22.58;32.11
26563;BME280;14217;50.986;5.826;2023-05-19T11:32:28;101722.13;;;22.47;33.14
26563;BME280;14217;50.986;5.826;2023-05-19T11:37:31;101722.13;;;22.47;33.28
26563;BME280;14217;50.986;5.826;2023-05-19T11:42:34;101714.31;;;22.62;33.06
26563;BME280;14217;50.986;5.826;2023-05-19T11:47:37;101716.47;;;22.53;33.80
26563;BME280;14217;50.986;5.826;2023-05-19T11:53:00;101712.94;;;22.53;34.35
26563;BME280;14217;50.986;5.826;2023-05-19T11:58:03;101698.16;;;22.65;33.80
26563;BME280;14217;50.986;5.826;2023-05-19T12:03:07;101693.38;;;22.89;33.03
26563;BME280;14217;50.986;5.826;2023-05-19T12:08:10;101704.47;;;22.81;32.66
26563;BME280;14217;50.986;5.826;2023-05-19T12:13:13;101699.22;;;22.80;32.54
26563;BME280;14217;50.986;5.826;2023-05-19T12:18:15;101693.81;;;22.62;33.43
26563;BME280;14217;50.986;5.826;2023-05-19T12:23:17;101675.22;;;22.78;33.30
26563;BME280;14217;50.986;5.826;2023-05-19T12:28:20;101683.44;;;22.37;34.25
26563;BME280;14217;50.986;5.826;2023-05-19T12:33:22;101683.41;;;22.18;34.85
26563;BME280;14217;50.986;5.826;2023-05-19T12:38:25;101674.84;;;22.11;34.91
26563;BME280;14217;50.986;5.826;2023-05-19T12:43:27;101678.94;;;22.19;34.90
26563;BME280;14217;50.986;5.826;2023-05-19T12:48:29;101672.94;;;22.13;35.20
26563;BME280;14217;50.986;5.826;2023-05-19T12:53:31;101675.22;;;22.23;35.41
26563;BME280;14217;50.986;5.826;2023-05-19T12:58:33;101669.41;;;22.13;35.50
26563;BME280;14217;50.986;5.826;2023-05-19T13:03:39;101672.81;;;22.17;35.42
26563;BME280;14217;50.986;5.826;2023-05-19T13:08:45;101663.78;;;22.19;35.55
26563;BME280;14217;50.986;5.826;2023-05-19T13:13:47;101664.38;;;22.26;35.43
26563;BME280;14217;50.986;5.826;2023-05-19T13:18:49;101668.25;;;22.19;35.34
26563;BME280;14217;50.986;5.826;2023-05-19T13:23:52;101645.84;;;22.23;35.66
26563;BME280;14217;50.986;5.826;2023-05-19T13:28:54;101649.81;;;22.33;35.26
26563;BME280;14217;50.986;5.826;2023-05-19T13:33:55;101647.50;;;22.44;34.70
26563;BME280;14217;50.986;5.826;2023-05-19T13:38:58;101629.50;;;22.30;33.04
26563;BME280;14217;50.986;5.826;2023-05-19T13:44:01;101624.69;;;22.56;33.58
26563;BME280;14217;50.986;5.826;2023-05-19T13:49:03;101624.13;;;22.49;33.63
26563;BME280;14217;50.986;5.826;2023-05-19T13:54:05;101628.25;;;22.38;33.56
26563;BME280;14217;50.986;5.826;2023-05-19T13:59:07;101631.00;;;22.53;33.04
26563;BME280;14217;50.986;5.826;2023-05-19T14:04:09;101619.88;;;22.63;32.86
26563;BME280;14217;50.986;5.826;2023-05-19T14:09:11;101616.19;;;22.65;32.78
26563;BME280;14217;50.986;5.826;2023-05-19T14:14:13;101617.22;;;22.63;32.81
26563;BME280;14217;50.986;5.826;2023-05-19T14:19:16;101624.44;;;22.61;32.74
26563;BME280;14217;50.986;5.826;2023-05-19T14:24:18;101619.72;;;22.66;32.86
26563;BME280;14217;50.986;5.826;2023-05-19T14:29:20;101614.56;;;22.80;33.03
26563;BME280;14217;50.986;5.826;2023-05-19T14:34:22;101612.97;;;22.76;33.10
26563;BME280;14217;50.986;5.826;2023-05-19T14:39:25;101617.94;;;22.84;33.04
26563;BME280;14217;50.986;5.826;2023-05-19T14:44:30;101605.63;;;22.81;32.75
26563;BME280;14217;50.986;5.826;2023-05-19T14:49:33;101603.31;;;22.91;32.62
26563;BME280;14217;50.986;5.826;2023-05-19T14:54:35;101605.38;;;22.86;32.60
26563;BME280;14217;50.986;5.826;2023-05-19T14:59:37;101609.88;;;22.85;32.47
26563;BME280;14217;50.986;5.826;2023-05-19T15:04:40;101586.19;;;22.95;32.09
26563;BME280;14217;50.986;5.826;2023-05-19T15:09:42;101584.63;;;22.91;32.32
26563;BME280;14217;50.986;5.826;2023-05-19T15:14:44;101594.78;;;23.02;31.79
26563;BME280;14217;50.986;5.826;2023-05-19T15:19:46;101583.50;;;22.95;31.64
26563;BME280;14217;50.986;5.826;2023-05-19T15:24:48;101578.16;;;22.95;31.59
26563;BME280;14217;50.986;5.826;2023-05-19T15:29:50;101575.44;;;22.97;31.35
26563;BME280;14217;50.986;5.826;2023-05-19T15:34:52;101569.13;;;22.98;31.17
26563;BME280;14217;50.986;5.826;2023-05-19T15:39:54;101579.75;;;22.99;31.20
26563;BME280;14217;50.986;5.826;2023-05-19T15:44:56;101578.75;;;23.02;30.82
26563;BME280;14217;50.986;5.826;2023-05-19T15:49:58;101576.34;;;22.96;31.10
26563;BME280;14217;50.986;5.826;2023-05-19T15:55:00;101572.16;;;23.09;31.04
26563;BME280;14217;50.986;5.826;2023-05-19T16:00:03;101558.25;;;23.02;31.49
26563;BME280;14217;50.986;5.826;2023-05-19T16:05:05;101551.16;;;23.01;31.21
26563;BME280;14217;50.986;5.826;2023-05-19T16:10:07;101546.75;;;23.00;31.28
26563;BME280;14217;50.986;5.826;2023-05-19T16:15:10;101537.56;;;23.06;30.88
26563;BME280;14217;50.986;5.826;2023-05-19T16:20:12;101542.03;;;23.05;31.24
26563;BME280;14217;50.986;5.826;2023-05-19T16:25:14;101538.34;;;23.08;31.34
26563;BME280;14217;50.986;5.826;2023-05-19T16:30:16;101538.59;;;23.03;31.94
26563;BME280;14217;50.986;5.826;2023-05-19T16:35:21;101531.09;;;23.10;31.83
26563;BME280;14217;50.986;5.826;2023-05-19T16:40:23;101522.38;;;23.06;32.17
26563;BME280;14217;50.986;5.826;2023-05-19T16:45:26;101534.81;;;23.07;32.05
26563;BME280;14217;50.986;5.826;2023-05-19T16:50:28;101530.31;;;23.08;32.10
26563;BME280;14217;50.986;5.826;2023-05-19T16:55:30;101513.59;;;23.04;32.52
26563;BME280;14217;50.986;5.826;2023-05-19T17:00:32;101521.44;;;23.07;32.29
26563;BME280;14217;50.986;5.826;2023-05-19T17:05:34;101524.19;;;23.06;32.21
26563;BME280;14217;50.986;5.826;2023-05-19T17:10:38;101519.88;;;23.03;32.40
26563;BME280;14217;50.986;5.826;2023-05-19T17:15:40;101519.81;;;23.05;32.44
26563;BME280;14217;50.986;5.826;2023-05-19T17:20:43;101516.44;;;23.00;32.55
26563;BME280;14217;50.986;5.826;2023-05-19T17:25:46;101517.97;;;23.05;32.74
26563;BME280;14217;50.986;5.826;2023-05-19T17:30:48;101526.00;;;23.05;32.92
26563;BME280;14217;50.986;5.826;2023-05-19T17:35:50;101527.03;;;23.03;32.97
26563;BME280;14217;50.986;5.826;2023-05-19T17:40:59;101528.50;;;23.08;33.37
26563;BME280;14217;50.986;5.826;2023-05-19T17:46:02;101526.97;;;23.04;33.29
26563;BME280;14217;50.986;5.826;2023-05-19T17:51:04;101518.06;;;23.04;32.78
26563;BME280;14217;50.986;5.826;2023-05-19T17:56:10;101517.47;;;22.97;32.79
26563;BME280;14217;50.986;5.826;2023-05-19T18:01:13;101522.22;;;23.09;32.65
26563;BME280;14217;50.986;5.826;2023-05-19T18:06:19;101529.47;;;23.07;32.74
26563;BME280;14217;50.986;5.826;2023-05-19T18:11:21;101533.06;;;23.06;32.58
26563;BME280;14217;50.986;5.826;2023-05-19T18:16:24;101525.28;;;23.02;31.90
26563;BME280;14217;50.986;5.826;2023-05-19T18:21:26;101525.22;;;23.03;31.62
26563;BME280;14217;50.986;5.826;2023-05-19T18:26:32;101533.44;;;22.99;31.51
26563;BME280;14217;50.986;5.826;2023-05-19T18:31:34;101537.06;;;22.98;31.25
26563;BME280;14217;50.986;5.826;2023-05-19T18:36:36;101541.31;;;23.02;31.22
26563;BME280;14217;50.986;5.826;2023-05-19T18:41:38;101540.50;;;23.00;31.43
26563;BME280;14217;50.986;5.826;2023-05-19T18:46:43;101549.88;;;22.91;31.83
26563;BME280;14217;50.986;5.826;2023-05-19T18:51:45;101552.31;;;22.96;32.15
26563;BME280;14217;50.986;5.826;2023-05-19T18:56:49;101554.91;;;22.97;31.90
26563;BME280;14217;50.986;5.826;2023-05-19T19:01:54;101552.31;;;22.96;32.42
26563;BME280;14217;50.986;5.826;2023-05-19T19:06:56;101557.56;;;22.97;32.22
26563;BME280;14217;50.986;5.826;2023-05-19T19:11:58;101562.06;;;22.97;32.57
26563;BME280;14217;50.986;5.826;2023-05-19T19:17:00;101572.75;;;22.97;32.54
26563;BME280;14217;50.986;5.826;2023-05-19T19:22:03;101573.53;;;22.99;32.89
26563;BME280;14217;50.986;5.826;2023-05-19T19:27:05;101578.75;;;23.02;32.94
26563;BME280;14217;50.986;5.826;2023-05-19T19:32:07;101581.41;;;23.02;32.83
26563;BME280;14217;50.986;5.826;2023-05-19T19:37:09;101583.09;;;23.04;32.72
26563;BME280;14217;50.986;5.826;2023-05-19T19:42:11;101594.72;;;23.03;32.95
26563;BME280;14217;50.986;5.826;2023-05-19T19:47:14;101596.75;;;22.98;33.19
26563;BME280;14217;50.986;5.826;2023-05-19T19:52:16;101595.06;;;22.96;33.84
26563;BME280;14217;50.986;5.826;2023-05-19T19:57:18;101600.25;;;22.99;34.00
26563;BME280;14217;50.986;5.826;2023-05-19T20:02:20;101601.19;;;22.98;33.88
26563;BME280;14217;50.986;5.826;2023-05-19T20:07:22;101608.44;;;22.96;34.00
26563;BME280;14217;50.986;5.826;2023-05-19T20:12:24;101609.31;;;22.96;33.99
26563;BME280;14217;50.986;5.826;2023-05-19T20:17:26;101615.44;;;22.98;34.17
26563;BME280;14217;50.986;5.826;2023-05-19T20:22:28;101615.44;;;22.98;34.80
26563;BME280;14217;50.986;5.826;2023-05-19T20:27:30;101620.06;;;22.94;34.71
26563;BME280;14217;50.986;5.826;2023-05-19T20:32:32;101618.50;;;22.90;34.94
26563;BME280;14217;50.986;5.826;2023-05-19T20:37:35;101611.34;;;22.91;34.46
26563;BME280;14217;50.986;5.826;2023-05-19T20:42:38;101620.88;;;22.97;34.53
26563;BME280;14217;50.986;5.826;2023-05-19T20:47:40;101614.38;;;23.02;34.37
26563;BME280;14217;50.986;5.826;2023-05-19T20:52:42;101618.97;;;22.99;34.54
26563;BME280;14217;50.986;5.826;2023-05-19T20:57:44;101614.72;;;22.94;34.53
26563;BME280;14217;50.986;5.826;2023-05-19T21:02:46;101615.44;;;22.98;34.79
26563;BME280;14217;50.986;5.826;2023-05-19T21:07:48;101620.69;;;23.00;34.39
26563;BME280;14217;50.986;5.826;2023-05-19T21:12:50;101630.59;;;22.98;34.45
26563;BME280;14217;50.986;5.826;2023-05-19T21:17:52;101628.09;;;22.94;34.69
26563;BME280;14217;50.986;5.826;2023-05-19T21:22:54;101628.03;;;22.96;34.85
26563;BME280;14217;50.986;5.826;2023-05-19T21:27:57;101633.19;;;22.99;34.68
26563;BME280;14217;50.986;5.826;2023-05-19T21:32:59;101627.06;;;22.97;34.83
26563;BME280;14217;50.986;5.826;2023-05-19T21:38:01;101626.22;;;22.97;34.61
26563;BME280;14217;50.986;5.826;2023-05-19T21:43:16;101638.44;;;23.02;34.84
26563;BME280;14217;50.986;5.826;2023-05-19T21:48:18;101632.47;;;22.96;34.63
26563;BME280;14217;50.986;5.826;2023-05-19T21:53:20;101628.88;;;22.97;34.83
26563;BME280;14217;50.986;5.826;2023-05-19T21:58:22;101627.91;;;22.98;34.93
26563;BME280;14217;50.986;5.826;2023-05-19T22:03:24;101635.09;;;22.97;34.62
26563;BME280;14217;50.986;5.826;2023-05-19T22:08:26;101631.38;;;23.00;34.78
26563;BME280;14217;50.986;5.826;2023-05-19T22:13:29;101627.00;;;22.99;34.68
26563;BME280;14217;50.986;5.826;2023-05-19T22:18:31;101628.94;;;22.95;35.07
26563;BME280;14217;50.986;5.826;2023-05-19T22:23:33;101626.03;;;23.00;35.08
26563;BME280;14217;50.986;5.826;2023-05-19T22:28:35;101626.13;;;22.98;35.01
26563;BME280;14217;50.986;5.826;2023-05-19T22:33:37;101619.84;;;22.99;35.00
26563;BME280;14217;50.986;5.826;2023-05-19T22:38:39;101622.50;;;22.99;34.93
26563;BME280;14217;50.986;5.826;2023-05-19T22:43:41;101622.50;;;22.99;35.01
26563;BME280;14217;50.986;5.826;2023-05-19T22:48:43;101633.28;;;22.98;35.22
26563;BME280;14217;50.986;5.826;2023-05-19T22:53:45;101634.06;;;23.00;34.88
26563;BME280;14217;50.986;5.826;2023-05-19T22:58:49;101638.53;;;22.99;34.93
26563;BME280;14217;50.986;5.826;2023-05-19T23:03:51;101620.78;;;22.98;34.93
26563;BME280;14217;50.986;5.826;2023-05-19T23:09:00;101617.34;;;22.96;35.15
26563;BME280;14217;50.986;5.826;2023-05-19T23:14:03;101617.22;;;22.98;35.32
26563;BME280;14217;50.986;5.826;2023-05-19T23:19:05;101618.00;;;23.00;35.28
26563;BME280;14217;50.986;5.826;2023-05-19T23:24:07;101619.91;;;22.98;35.20
26563;BME280;14217;50.986;5.826;2023-05-19T23:29:10;101628.03;;;22.96;35.16
26563;BME280;14217;50.986;5.826;2023-05-19T23:34:13;101625.41;;;22.94;35.46
26563;BME280;14217;50.986;5.826;2023-05-19T23:39:15;101616.38;;;22.97;35.18
26563;BME280;14217;50.986;5.826;2023-05-19T23:44:18;101607.63;;;22.93;35.56
26563;BME280;14217;50.986;5.826;2023-05-19T23:49:20;101609.31;;;22.96;35.17
26563;BME280;14217;50.986;5.826;2023-05-19T23:54:22;101612.06;;;22.94;35.55
26563;BME280;14217;50.986;5.826;2023-05-19T23:59:25;101609.22;;;22.98;35.39
